Time;durP1;ratioP1;P1;durP2;ratioP2;P2;SDS_P1;SDS_P2;PMS_P1;PMS_P2;Temp;Humidity;BMP_temperature;BMP_pressure;BME280_temperature;BME280_humidity;BME280_pressure;Samples;Min_cycle;Max_cycle;Signal;HPM_P1;HPM_P2
2021/01/19 00:00:52;;;;;;;239.30;91.95;;;;;;;-7.42;100.00;99136.13;2079389;28;20226;-77
2021/01/19 00:01:53;;;;;;;235.25;90.82;;;;;;;-7.44;100.00;99130.34;2074835;28;20262;-77
2021/01/19 00:02:54;;;;;;;243.20;90.63;;;;;;;-7.42;100.00;99128.38;2083663;28;20230;-77
2021/01/19 00:03:55;;;;;;;246.93;87.85;;;;;;;-7.35;100.00;99127.66;2087316;28;20243;-77
2021/01/19 00:04:56;;;;;;;235.27;90.60;;;;;;;-7.30;100.00;99135.69;2080203;28;20231;-77
2021/01/19 00:05:57;;;;;;;229.50;88.20;;;;;;;-7.33;100.00;99117.91;2080306;28;20306;-77
2021/01/19 00:06:58;;;;;;;211.70;84.23;;;;;;;-7.22;100.00;99125.22;2080236;28;20674;-77
2021/01/19 00:07:59;;;;;;;224.27;85.82;;;;;;;-7.25;100.00;99130.78;2081459;28;20223;-76
2021/01/19 00:09:00;;;;;;;226.83;85.63;;;;;;;-7.36;100.00;99116.50;2081766;28;20342;-77
2021/01/19 00:10:01;;;;;;;224.52;86.47;;;;;;;-7.37;100.00;99111.50;2080963;28;20223;-76
2021/01/19 00:11:04;;;;;;;222.37;84.40;;;;;;;-7.27;100.00;99119.81;2080919;28;20227;-77
2021/01/19 00:12:06;;;;;;;230.40;88.63;;;;;;;-7.28;100.00;99108.63;2080938;28;20293;-77
2021/01/19 00:13:07;;;;;;;228.45;88.45;;;;;;;-7.21;100.00;99117.31;2072520;28;20224;-77
2021/01/19 00:14:08;;;;;;;220.15;86.78;;;;;;;-7.31;100.00;99106.38;2081005;28;20274;-77
2021/01/19 00:15:12;;;;;;;236.40;88.13;;;;;;;-7.19;100.00;99120.50;2080845;28;20235;-77
2021/01/19 00:16:12;;;;;;;236.30;90.57;;;;;;;-7.28;100.00;99102.66;2073276;28;20587;-77
2021/01/19 00:17:14;;;;;;;233.00;90.10;;;;;;;-7.28;100.00;99118.19;2081008;28;20246;-76
2021/01/19 00:18:15;;;;;;;243.65;93.50;;;;;;;-7.30;100.00;99109.78;2089077;28;20297;-77
2021/01/19 00:19:16;;;;;;;239.35;92.07;;;;;;;-7.29;100.00;99106.22;2080788;28;20578;-77
2021/01/19 00:20:17;;;;;;;243.90;92.55;;;;;;;-7.29;100.00;99111.41;2080898;28;20211;-77
2021/01/19 00:21:18;;;;;;;268.50;98.20;;;;;;;-7.29;100.00;99107.03;2081502;28;20223;-77
2021/01/19 00:22:19;;;;;;;239.68;92.40;;;;;;;-7.31;100.00;99110.75;2081767;28;20773;-77
2021/01/19 00:23:21;;;;;;;263.80;93.90;;;;;;;-7.29;100.00;99116.59;2081690;28;20572;-77
2021/01/19 00:24:21;;;;;;;234.52;93.10;;;;;;;-7.27;100.00;99112.03;2081501;28;20231;-77
2021/01/19 00:25:23;;;;;;;236.10;91.93;;;;;;;-7.26;100.00;99109.25;2081576;28;20223;-77
2021/01/19 00:26:23;;;;;;;241.52;90.72;;;;;;;-7.22;100.00;99118.25;2081544;28;20682;-77
2021/01/19 00:27:25;;;;;;;234.60;89.87;;;;;;;-7.20;100.00;99120.69;2080731;28;20578;-77
2021/01/19 00:28:26;;;;;;;262.33;95.68;;;;;;;-7.19;100.00;99123.09;2080798;28;20341;-77
2021/01/19 00:29:27;;;;;;;244.02;92.65;;;;;;;-7.17;100.00;99117.72;2072407;28;20236;-76
2021/01/19 00:30:29;;;;;;;251.90;92.45;;;;;;;-7.18;100.00;99113.53;2072836;28;20776;-77
2021/01/19 00:31:30;;;;;;;242.07;96.38;;;;;;;-7.18;100.00;99118.72;2081611;28;20216;-76
2021/01/19 00:32:31;;;;;;;244.95;94.65;;;;;;;-7.17;100.00;99117.72;2080769;28;20238;-76
2021/01/19 00:33:32;;;;;;;251.07;96.23;;;;;;;-7.14;100.00;99109.59;2080788;28;20235;-76
2021/01/19 00:34:33;;;;;;;238.73;93.72;;;;;;;-7.23;100.00;99102.88;2072672;28;20856;-77
2021/01/19 00:35:34;;;;;;;228.83;94.40;;;;;;;-7.16;100.00;99111.56;2089087;28;20575;-77
2021/01/19 00:36:35;;;;;;;244.82;92.43;;;;;;;-7.18;100.00;99109.16;2088865;28;20532;-77
2021/01/19 00:37:36;;;;;;;246.40;97.03;;;;;;;-7.27;100.00;99088.69;2080631;28;20693;-77
2021/01/19 00:38:37;;;;;;;249.95;94.72;;;;;;;-7.22;100.00;99102.72;2079196;28;20229;-76
2021/01/19 00:39:39;;;;;;;234.07;93.77;;;;;;;-7.19;100.00;99104.16;2081590;28;20235;-76
2021/01/19 00:40:39;;;;;;;239.73;92.65;;;;;;;-7.21;100.00;99104.34;2081369;28;20284;-77
2021/01/19 00:41:41;;;;;;;237.57;91.77;;;;;;;-7.16;100.00;99107.19;2081346;28;20281;-76
2021/01/19 00:42:42;;;;;;;228.57;91.18;;;;;;;-7.12;100.00;99098.06;2080541;28;20231;-77
2021/01/19 00:43:43;;;;;;;228.83;90.97;;;;;;;-7.14;100.00;99102.59;2080583;28;20230;-77
2021/01/19 00:44:44;;;;;;;242.95;92.25;;;;;;;-7.04;100.00;99098.94;2088890;28;20223;-76
2021/01/19 00:45:46;;;;;;;227.68;88.00;;;;;;;-7.08;100.00;99098.50;2088784;28;20253;-77
2021/01/19 00:46:49;;;;;;;244.98;96.07;;;;;;;-7.07;100.00;99107.06;2089045;28;20211;-77
2021/01/19 00:47:51;;;;;;;237.18;92.32;;;;;;;-7.07;100.00;99110.47;2088513;28;20235;-77
2021/01/19 00:48:52;;;;;;;244.82;90.30;;;;;;;-7.09;100.00;99107.25;2080321;28;20283;-76
2021/01/19 00:49:53;;;;;;;241.10;92.60;;;;;;;-7.08;100.00;99124.41;2080507;28;20602;-76
2021/01/19 00:50:54;;;;;;;227.38;91.47;;;;;;;-7.08;100.00;99115.84;2072124;28;20224;-77
2021/01/19 00:51:56;;;;;;;234.23;91.43;;;;;;;-7.07;100.00;99109.66;2072441;28;20247;-76
2021/01/19 00:52:56;;;;;;;223.73;90.43;;;;;;;-7.09;100.00;99103.88;2072494;28;20232;-77
2021/01/19 00:53:58;;;;;;;233.27;91.28;;;;;;;-7.06;100.00;99100.91;2080516;28;20223;-77
2021/01/19 00:54:59;;;;;;;222.85;89.43;;;;;;;-7.03;100.00;99101.38;2080574;28;20249;-77
2021/01/19 00:56:01;;;;;;;240.80;90.55;;;;;;;-7.06;100.00;99088.75;2072375;28;20251;-77
2021/01/19 00:57:02;;;;;;;234.75;88.93;;;;;;;-7.04;100.00;99094.53;2080863;28;20222;-77
2021/01/19 00:58:04;;;;;;;233.60;88.05;;;;;;;-7.05;100.00;99092.13;2072379;28;20258;-77
2021/01/19 00:59:09;;;;;;;226.98;91.55;;;;;;;-7.06;100.00;99088.75;2080134;28;20233;-77
2021/01/19 01:00:12;;;;;;;241.80;92.85;;;;;;;-7.04;100.00;99084.16;2072344;28;20655;-77
2021/01/19 01:01:14;;;;;;;230.50;90.82;;;;;;;-7.02;100.00;99087.41;2080658;28;20258;-77
2021/01/19 01:02:17;;;;;;;225.75;89.05;;;;;;;-6.99;100.00;99097.41;2080410;28;20229;-77
2021/01/19 01:03:17;;;;;;;240.57;95.20;;;;;;;-6.94;100.00;99084.72;2080415;28;20273;-77
2021/01/19 01:04:19;;;;;;;230.53;94.50;;;;;;;-6.88;100.00;99086.56;2080534;28;20223;-77
2021/01/19 01:05:19;;;;;;;233.50;93.38;;;;;;;-6.90;100.00;99083.34;2080477;28;20264;-77
2021/01/19 01:06:21;;;;;;;232.20;92.03;;;;;;;-6.88;100.00;99073.59;2080518;28;20219;-77
2021/01/19 01:07:22;;;;;;;220.52;91.43;;;;;;;-6.90;100.00;99080.75;2080843;28;20230;-77
2021/01/19 01:08:23;;;;;;;225.63;91.50;;;;;;;-6.98;100.00;99078.28;2081096;28;20234;-76
2021/01/19 01:09:24;;;;;;;228.05;91.93;;;;;;;-6.96;100.00;99078.88;2080370;28;20249;-77
2021/01/19 01:10:25;;;;;;;241.60;89.27;;;;;;;-6.85;100.00;99083.63;2072249;28;20707;-77
2021/01/19 01:11:26;;;;;;;225.70;88.20;;;;;;;-6.89;100.00;99079.75;2072120;28;20342;-77
2021/01/19 01:12:27;;;;;;;236.70;90.17;;;;;;;-6.87;100.00;99075.19;2080562;28;20258;-77
2021/01/19 01:13:28;;;;;;;241.80;91.18;;;;;;;-6.90;100.00;99072.16;2080486;28;20749;-77
2021/01/19 01:14:30;;;;;;;223.67;89.63;;;;;;;-6.88;100.00;99077.97;2080373;28;20634;-77
2021/01/19 01:15:33;;;;;;;241.32;93.35;;;;;;;-6.88;100.00;99078.78;2080523;28;20689;-77
2021/01/19 01:16:36;;;;;;;237.55;93.20;;;;;;;-6.90;100.00;99069.56;2081116;28;20227;-78
2021/01/19 01:17:38;;;;;;;243.85;91.15;;;;;;;-6.94;100.00;99063.16;2080959;28;20644;-76
2021/01/19 01:18:39;;;;;;;232.65;94.18;;;;;;;-6.87;100.00;99077.78;2080303;28;20269;-77
2021/01/19 01:19:40;;;;;;;235.73;92.45;;;;;;;-6.90;100.00;99079.94;2071536;28;20228;-77
2021/01/19 01:20:41;;;;;;;244.50;94.13;;;;;;;-6.92;100.00;99072.34;2080416;28;20266;-77
2021/01/19 01:21:42;;;;;;;250.23;94.85;;;;;;;-6.88;100.00;99073.59;2080320;28;20228;-77
2021/01/19 01:22:44;;;;;;;244.50;93.60;;;;;;;-6.94;100.00;99069.16;2080441;28;20294;-77
2021/01/19 01:23:45;;;;;;;238.77;95.63;;;;;;;-6.85;100.00;99062.06;2081054;28;20223;-77
2021/01/19 01:24:47;;;;;;;235.83;93.17;;;;;;;-6.84;100.00;99068.84;2080254;28;20219;-77
2021/01/19 01:25:47;;;;;;;263.60;97.50;;;;;;;-6.89;100.00;99056.41;2080478;28;20257;-77
2021/01/19 01:26:52;;;;;;;221.50;91.07;;;;;;;-6.84;100.00;99064.47;2081208;28;20698;-77
2021/01/19 01:27:53;;;;;;;233.70;93.43;;;;;;;-6.86;100.00;99061.25;2096510;28;20245;-77
2021/01/19 01:28:54;;;;;;;228.47;91.60;;;;;;;-6.81;100.00;99062.50;2096911;28;20233;-77
2021/01/19 01:29:55;;;;;;;241.48;93.82;;;;;;;-6.80;100.00;99064.91;2080989;28;20288;-77
2021/01/19 01:30:57;;;;;;;234.33;93.07;;;;;;;-6.86;100.00;99056.06;2080590;28;20256;-77
2021/01/19 01:31:58;;;;;;;233.57;96.00;;;;;;;-6.76;100.00;99062.75;2080252;28;20325;-78
2021/01/19 01:33:00;;;;;;;223.25;88.65;;;;;;;-6.82;100.00;99050.50;2080375;28;20230;-77
2021/01/19 01:34:01;;;;;;;260.15;93.68;;;;;;;-6.83;100.00;99057.50;2080288;28;20574;-77
2021/01/19 01:35:02;;;;;;;248.80;95.50;;;;;;;-6.88;100.00;99058.03;2072050;28;20239;-77
2021/01/19 01:36:04;;;;;;;232.93;95.28;;;;;;;-6.88;100.00;99058.03;2080229;28;20219;-76
2021/01/19 01:37:05;;;;;;;238.73;89.30;;;;;;;-6.85;100.00;99046.50;2080227;28;20265;-77
2021/01/19 01:38:06;;;;;;;238.85;91.40;;;;;;;-6.85;100.00;99054.28;2080220;28;20288;-77
2021/01/19 01:39:08;;;;;;;240.90;93.57;;;;;;;-6.88;100.00;99042.47;2077792;28;20224;-77
2021/01/19 01:40:10;;;;;;;239.73;94.80;;;;;;;-6.84;100.00;99043.72;2081010;28;20549;-76
2021/01/19 01:41:18;;;;;;;247.55;95.75;;;;;;;-6.86;100.00;99040.50;2081035;28;20233;-77
2021/01/19 01:42:21;;;;;;;248.02;93.40;;;;;;;-6.85;100.00;99047.31;2080142;28;20243;-77
2021/01/19 01:43:22;;;;;;;241.75;92.97;;;;;;;-6.84;100.00;99038.53;2080141;28;20223;-77
2021/01/19 01:44:23;;;;;;;246.15;93.43;;;;;;;-6.81;100.00;99044.34;2079754;28;20247;-77
2021/01/19 01:45:25;;;;;;;240.60;90.00;;;;;;;-6.81;100.00;99042.53;2080963;28;20227;-77
2021/01/19 01:46:26;;;;;;;252.52;92.10;;;;;;;-6.82;100.00;99037.53;2080194;28;20711;-77
2021/01/19 01:47:29;;;;;;;223.55;91.05;;;;;;;-6.84;100.00;99033.34;2080364;28;20271;-78
2021/01/19 01:48:29;;;;;;;232.85;91.25;;;;;;;-6.80;100.00;99032.97;2081064;28;20250;-77
2021/01/19 01:49:31;;;;;;;234.97;93.97;;;;;;;-6.85;100.00;99031.75;2080983;28;20223;-77
2021/01/19 01:50:32;;;;;;;252.80;97.00;;;;;;;-6.78;100.00;99031.78;2080028;28;20235;-77
2021/01/19 01:51:34;;;;;;;230.70;92.17;;;;;;;-6.79;100.00;99031.97;2080223;28;20269;-77
2021/01/19 01:52:35;;;;;;;235.10;92.80;;;;;;;-6.80;100.00;99026.00;2081116;28;20604;-77
2021/01/19 01:53:37;;;;;;;234.40;93.83;;;;;;;-6.76;100.00;99023.84;2081066;28;20223;-77
2021/01/19 01:54:38;;;;;;;247.07;96.63;;;;;;;-6.84;100.00;99012.59;2079706;28;20246;-76
2021/01/19 01:55:40;;;;;;;234.50;94.77;;;;;;;-6.69;100.00;99029.88;2080214;28;20314;-77
2021/01/19 01:56:41;;;;;;;228.30;93.15;;;;;;;-6.68;100.00;99023.72;2080202;28;20322;-77
2021/01/19 01:57:42;;;;;;;235.57;92.63;;;;;;;-6.60;100.00;99026.19;2080236;28;20231;-78
2021/01/19 01:58:43;;;;;;;252.75;95.07;;;;;;;-6.63;100.00;99014.38;2080870;28;20309;-77
2021/01/19 01:59:48;;;;;;;231.25;91.72;;;;;;;-6.57;100.00;99018.03;2080061;28;20223;-77
2021/01/19 02:00:49;;;;;;;238.07;94.80;;;;;;;-6.60;100.00;99032.19;2080127;28;20298;-77
2021/01/19 02:01:50;;;;;;;236.00;95.18;;;;;;;-6.62;100.00;99028.94;2079955;28;20229;-77
2021/01/19 02:02:53;;;;;;;246.77;94.40;;;;;;;-6.68;100.00;99015.94;2079916;28;20298;-77
2021/01/19 02:03:54;;;;;;;233.23;96.80;;;;;;;-6.73;100.00;99010.50;2079713;28;20231;-77
2021/01/19 02:04:55;;;;;;;230.00;95.30;;;;;;;-6.67;100.00;99022.72;2079910;28;20480;-77
2021/01/19 02:05:56;;;;;;;242.80;95.70;;;;;;;-6.63;100.00;99026.53;2080100;28;20231;-77
2021/01/19 02:06:58;;;;;;;237.20;94.47;;;;;;;-6.59;100.00;99014.81;2080029;28;20454;-77
2021/01/19 02:08:06;;;;;;;228.77;91.03;;;;;;;-6.53;100.00;99015.84;2080331;28;20585;-77
2021/01/19 02:09:11;;;;;;;236.57;94.30;;;;;;;-6.53;100.00;99016.66;2080337;28;20276;-77
2021/01/19 02:10:20;;;;;;;236.57;94.10;;;;;;;-6.53;100.00;99008.88;2080286;28;20227;-76
2021/01/19 02:11:31;;;;;;;234.68;92.05;;;;;;;-6.59;100.00;99020.81;2072851;28;20734;-77
2021/01/19 02:12:41;;;;;;;218.35;93.25;;;;;;;-6.63;100.00;99014.38;2072770;28;20232;-77
2021/01/19 02:14:03;;;;;;;239.52;96.60;;;;;;;-6.66;100.00;99012.16;2089326;28;20269;-77
2021/01/19 02:15:06;;;;;;;246.80;92.53;;;;;;;-6.64;100.00;99015.38;2090751;28;20243;-77
2021/01/19 02:16:16;;;;;;;241.55;96.70;;;;;;;-6.72;100.00;99001.72;2080402;28;20234;-77
2021/01/19 02:17:23;;;;;;;242.90;95.93;;;;;;;-6.63;100.00;99013.56;2079970;28;20754;-77
2021/01/19 02:18:37;;;;;;;238.98;94.32;;;;;;;-6.63;100.00;99013.56;2073576;28;20306;-77
2021/01/19 02:20:05;;;;;;;251.85;96.55;;;;;;;-6.64;100.00;99011.97;2077483;28;20238;-77
2021/01/19 02:21:29;;;;;;;238.35;95.32;;;;;;;-6.62;100.00;99010.00;2079740;28;20230;-77
2021/01/19 02:22:49;;;;;;;239.90;95.13;;;;;;;-6.62;100.00;99005.59;2079798;28;20672;-77
2021/01/19 02:23:56;;;;;;;250.02;96.05;;;;;;;-6.61;100.00;99001.22;2078356;28;20234;-77
2021/01/19 02:25:11;;;;;;;242.20;92.97;;;;;;;-6.62;100.00;99004.78;2078370;28;23002;-77
2021/01/19 02:26:49;;;;;;;250.35;99.35;;;;;;;-6.59;100.00;99004.44;2080272;28;20358;-77
2021/01/19 02:28:10;;;;;;;250.25;97.32;;;;;;;-6.63;100.00;98990.22;2079411;28;20219;-77
2021/01/19 02:29:24;;;;;;;238.45;94.30;;;;;;;-6.56;100.00;98998.88;2079533;28;20227;-77
2021/01/19 02:30:38;;;;;;;241.85;93.32;;;;;;;-6.52;100.00;99004.47;2095636;28;20241;-77
2021/01/19 02:31:52;;;;;;;251.05;97.20;;;;;;;-6.56;100.00;98999.69;2085724;28;20264;-77
2021/01/19 02:33:03;;;;;;;230.13;91.63;;;;;;;-6.50;100.00;98998.13;2077324;28;20410;-77
2021/01/19 02:34:09;;;;;;;257.55;97.47;;;;;;;-6.52;100.00;98997.50;2079906;28;20250;-77
2021/01/19 02:35:13;;;;;;;250.70;96.75;;;;;;;-6.50;100.00;98995.53;2080200;28;20368;-77
2021/01/19 02:36:19;;;;;;;242.82;94.22;;;;;;;-6.48;100.00;98998.75;2080786;28;20219;-77
2021/01/19 02:37:22;;;;;;;252.20;99.93;;;;;;;-6.46;100.00;98982.97;2079816;28;20230;-77
2021/01/19 02:38:33;;;;;;;243.27;97.07;;;;;;;-6.45;100.00;98989.78;2079567;28;20326;-77
2021/01/19 02:39:39;;;;;;;234.02;93.20;;;;;;;-6.45;100.00;98990.56;2080545;28;20310;-77
2021/01/19 02:40:41;;;;;;;224.05;87.03;;;;;;;-6.46;100.00;98977.78;2080029;28;20667;-77
2021/01/19 02:41:43;;;;;;;209.98;85.60;;;;;;;-6.33;100.00;99002.06;2080501;28;20436;-77
2021/01/19 02:42:50;;;;;;;223.95;87.18;;;;;;;-6.38;100.00;98993.22;2079774;28;20259;-77
2021/01/19 02:43:57;;;;;;;201.68;81.70;;;;;;;-6.37;100.00;98982.66;2079744;28;20223;-77
2021/01/19 02:45:00;;;;;;;200.77;78.97;;;;;;;-6.37;100.00;98987.84;2072025;28;20216;-77
2021/01/19 02:46:01;;;;;;;192.93;77.43;;;;;;;-6.40;100.00;98983.03;2079956;28;20219;-77
2021/01/19 02:47:04;;;;;;;188.37;74.73;;;;;;;-6.41;100.00;98980.63;2079764;28;20219;-77
2021/01/19 02:48:05;;;;;;;196.93;73.95;;;;;;;-6.43;100.00;98975.59;2079866;28;20682;-77
2021/01/19 02:49:07;;;;;;;187.82;71.93;;;;;;;-6.38;100.00;98990.63;2080518;28;20223;-77
2021/01/19 02:50:09;;;;;;;185.60;75.05;;;;;;;-6.44;100.00;98981.00;2079393;28;20223;-77
2021/01/19 02:51:10;;;;;;;181.68;74.90;;;;;;;-6.53;100.00;98967.34;2079882;28;20219;-77
2021/01/19 02:52:12;;;;;;;191.27;73.43;;;;;;;-6.40;100.00;98974.44;2080604;28;20306;-77
2021/01/19 02:53:14;;;;;;;189.40;76.20;;;;;;;-6.49;100.00;98976.38;2080445;28;20647;-77
2021/01/19 02:54:16;;;;;;;189.95;75.75;;;;;;;-6.44;100.00;98983.59;2080507;28;20246;-77
2021/01/19 02:55:19;;;;;;;181.95;76.07;;;;;;;-6.45;100.00;98985.38;2079625;28;20720;-78
2021/01/19 02:56:24;;;;;;;191.13;78.35;;;;;;;-6.45;100.00;98980.19;2079486;28;20223;-76
2021/01/19 02:57:37;;;;;;;195.27;80.13;;;;;;;-6.45;100.00;98980.19;2079926;28;20235;-76
2021/01/19 02:58:45;;;;;;;190.27;77.78;;;;;;;-6.44;100.00;98975.81;2080140;28;20288;-77
2021/01/19 02:59:50;;;;;;;195.30;80.78;;;;;;;-6.46;100.00;98973.41;2080460;28;20678;-77
2021/01/19 03:00:59;;;;;;;183.93;74.78;;;;;;;-6.44;100.00;98981.78;2079527;28;20674;-76
2021/01/19 03:02:08;;;;;;;193.68;76.90;;;;;;;-6.47;100.00;98977.00;2079342;28;20235;-76
2021/01/19 03:03:09;;;;;;;189.73;76.57;;;;;;;-6.46;100.00;98973.41;2072834;28;20231;-76
2021/01/19 03:04:11;;;;;;;190.43;73.78;;;;;;;-6.50;100.00;98964.41;2063332;28;20239;-76
2021/01/19 03:05:12;;;;;;;193.10;73.30;;;;;;;-6.37;100.00;98979.25;2074524;28;20234;-76
2021/01/19 03:06:15;;;;;;;197.55;77.05;;;;;;;-6.38;100.00;98973.25;2077667;28;20224;-76
2021/01/19 03:07:18;;;;;;;191.38;74.97;;;;;;;-6.38;100.00;98964.66;2079878;28;20227;-76
2021/01/19 03:08:20;;;;;;;202.18;78.18;;;;;;;-6.35;100.00;98975.47;2080519;28;20307;-76
2021/01/19 03:09:22;;;;;;;189.57;74.80;;;;;;;-6.27;100.00;98977.13;2080315;28;20219;-77
2021/01/19 03:10:23;;;;;;;201.80;75.95;;;;;;;-6.31;100.00;98966.31;2079054;28;20274;-76
2021/01/19 03:11:25;;;;;;;194.80;76.80;;;;;;;-6.40;100.00;98964.88;2079803;28;20309;-76
2021/01/19 03:12:26;;;;;;;183.77;77.65;;;;;;;-6.45;100.00;98954.25;2080471;28;20233;-76
2021/01/19 03:13:28;;;;;;;193.00;76.93;;;;;;;-6.40;100.00;98967.47;2079633;28;20717;-75
2021/01/19 03:14:29;;;;;;;181.68;71.72;;;;;;;-6.37;100.00;98967.06;2071511;28;20271;-76
2021/01/19 03:15:30;;;;;;;195.88;79.38;;;;;;;-6.44;100.00;98955.03;2079464;28;20227;-76
2021/01/19 03:16:31;;;;;;;183.93;76.60;;;;;;;-6.33;100.00;98964.91;2079719;28;20219;-76
2021/01/19 03:17:33;;;;;;;194.27;76.50;;;;;;;-6.34;100.00;98971.06;2079583;28;20306;-76
2021/01/19 03:18:35;;;;;;;184.63;74.43;;;;;;;-6.34;100.00;98966.72;2079706;28;20223;-76
2021/01/19 03:19:38;;;;;;;181.35;74.47;;;;;;;-6.34;100.00;98969.31;2079463;28;20310;-76
2021/01/19 03:20:40;;;;;;;193.38;75.53;;;;;;;-6.41;100.00;98955.47;2087614;28;20226;-76
2021/01/19 03:21:41;;;;;;;191.18;78.18;;;;;;;-6.35;100.00;98961.69;2087735;28;20321;-76
2021/01/19 03:22:42;;;;;;;197.10;76.97;;;;;;;-6.38;100.00;98960.28;2079537;28;20227;-76
2021/01/19 03:23:43;;;;;;;186.40;76.90;;;;;;;-6.36;100.00;98955.69;2087622;28;20265;-76
2021/01/19 03:24:44;;;;;;;193.37;78.43;;;;;;;-6.38;100.00;98959.47;2080240;28;20231;-76
2021/01/19 03:25:45;;;;;;;194.57;78.03;;;;;;;-6.40;100.00;98956.28;2080226;28;20758;-76
2021/01/19 03:26:46;;;;;;;186.00;76.40;;;;;;;-6.41;100.00;98952.88;2079483;28;20609;-76
2021/01/19 03:27:47;;;;;;;197.32;79.10;;;;;;;-6.38;100.00;98955.09;2079704;28;20309;-76
2021/01/19 03:28:48;;;;;;;188.33;76.20;;;;;;;-6.35;100.00;98954.69;2080334;28;20250;-76
2021/01/19 03:29:49;;;;;;;195.48;77.07;;;;;;;-6.38;100.00;98949.09;2079639;28;20590;-76
2021/01/19 03:30:50;;;;;;;186.40;76.97;;;;;;;-6.37;100.00;98946.31;2079562;28;20258;-76
2021/01/19 03:31:51;;;;;;;187.90;77.68;;;;;;;-6.35;100.00;98948.72;2080464;28;20624;-77
2021/01/19 03:32:53;;;;;;;180.73;76.03;;;;;;;-6.30;100.00;98952.34;2078980;28;20224;-75
2021/01/19 03:33:54;;;;;;;193.65;77.05;;;;;;;-6.30;100.00;98944.56;2079550;28;20306;-75
2021/01/19 03:34:56;;;;;;;181.23;76.37;;;;;;;-6.29;100.00;98956.53;2080240;28;20238;-76
2021/01/19 03:35:57;;;;;;;186.40;77.20;;;;;;;-6.29;100.00;98946.16;2080072;28;20336;-75
2021/01/19 03:36:58;;;;;;;196.77;78.10;;;;;;;-6.38;100.00;98939.53;2079489;28;20709;-75
2021/01/19 03:37:59;;;;;;;189.57;78.40;;;;;;;-6.27;100.00;98954.56;2079679;28;20219;-76
2021/01/19 03:39:00;;;;;;;189.23;75.07;;;;;;;-6.24;100.00;98944.81;2079499;28;20218;-75
2021/01/19 03:40:03;;;;;;;194.02;78.15;;;;;;;-6.24;100.00;98937.81;2079391;28;20329;-76
2021/01/19 03:41:04;;;;;;;189.18;78.57;;;;;;;-6.21;100.00;98949.59;2079585;28;20219;-75
2021/01/19 03:42:05;;;;;;;213.02;82.55;;;;;;;-6.21;100.00;98945.22;2080292;28;20630;-78
2021/01/19 03:43:07;;;;;;;201.53;81.07;;;;;;;-6.22;100.00;98942.81;2081858;28;20215;-76
2021/01/19 03:44:08;;;;;;;192.85;80.32;;;;;;;-6.21;100.00;98942.63;2081555;28;20231;-77
2021/01/19 03:45:10;;;;;;;210.02;85.15;;;;;;;-6.22;100.00;98945.41;2081069;28;20235;-77
2021/01/19 03:46:11;;;;;;;202.20;84.00;;;;;;;-6.24;100.00;98944.81;2081233;28;20266;-76
2021/01/19 03:47:13;;;;;;;209.33;83.33;;;;;;;-6.19;100.00;98947.63;2081911;28;20234;-76
2021/01/19 03:48:14;;;;;;;210.32;81.30;;;;;;;-6.18;100.00;98944.03;2080973;28;20310;-76
2021/01/19 03:49:16;;;;;;;209.13;85.82;;;;;;;-6.17;100.00;98948.22;2081188;28;20250;-76
2021/01/19 03:50:16;;;;;;;197.93;82.05;;;;;;;-6.17;100.00;98935.25;2081872;28;20306;-76
2021/01/19 03:51:18;;;;;;;223.10;88.53;;;;;;;-6.15;100.00;98948.84;2081949;28;20226;-76
2021/01/19 03:52:19;;;;;;;218.45;86.57;;;;;;;-6.16;100.00;98944.66;2081048;28;20306;-76
2021/01/19 03:53:20;;;;;;;227.90;86.80;;;;;;;-6.15;100.00;98946.25;2080930;28;20219;-76
2021/01/19 03:54:21;;;;;;;222.07;88.72;;;;;;;-6.15;100.00;98933.28;2081870;28;20306;-76
2021/01/19 03:55:22;;;;;;;234.80;91.20;;;;;;;-6.11;100.00;98934.50;2081405;28;20219;-76
2021/01/19 03:56:23;;;;;;;230.10;92.10;;;;;;;-6.12;100.00;98943.28;2081522;28;20317;-76
2021/01/19 03:57:24;;;;;;;226.77;90.50;;;;;;;-6.09;100.00;98935.88;2081108;28;20238;-76
2021/01/19 03:58:25;;;;;;;221.65;90.78;;;;;;;-6.08;100.00;98945.31;2081175;28;20306;-76
2021/01/19 03:59:27;;;;;;;235.63;90.97;;;;;;;-6.07;100.00;98949.50;2081126;28;20230;-76
2021/01/19 04:00:28;;;;;;;225.05;91.30;;;;;;;-6.07;100.00;98933.94;2072867;28;20710;-76
2021/01/19 04:01:29;;;;;;;229.33;90.23;;;;;;;-6.07;100.00;98935.72;2080813;28;20593;-76
2021/01/19 04:02:30;;;;;;;211.57;88.07;;;;;;;-6.04;100.00;98935.34;2089302;28;20336;-76
2021/01/19 04:03:32;;;;;;;228.53;88.43;;;;;;;-6.00;100.00;98934.75;2089248;28;20288;-76
2021/01/19 04:04:33;;;;;;;208.95;86.72;;;;;;;-5.99;100.00;98933.78;2088984;28;20235;-76
2021/01/19 04:05:34;;;;;;;213.00;87.20;;;;;;;-5.94;100.00;98930.59;2081626;28;20318;-76
2021/01/19 04:06:35;;;;;;;206.55;83.47;;;;;;;-6.01;100.00;98924.53;2081766;28;20678;-76
2021/01/19 04:07:38;;;;;;;202.20;83.67;;;;;;;-6.01;100.00;98934.94;2081729;28;20575;-76
2021/01/19 04:08:39;;;;;;;192.38;80.68;;;;;;;-5.99;100.00;98928.56;2080562;28;20615;-76
2021/01/19 04:09:40;;;;;;;212.27;85.13;;;;;;;-5.93;100.00;98926.97;2081083;28;20223;-77
2021/01/19 04:10:41;;;;;;;215.05;86.00;;;;;;;-5.98;100.00;98924.19;2080838;28;20247;-76
2021/01/19 04:11:42;;;;;;;210.23;84.73;;;;;;;-5.97;100.00;98925.78;2081156;28;20670;-76
2021/01/19 04:12:43;;;;;;;205.25;82.57;;;;;;;-5.94;100.00;98929.78;2081310;28;20215;-76
2021/01/19 04:13:45;;;;;;;187.43;80.30;;;;;;;-5.94;100.00;98930.59;2088730;28;20222;-76
2021/01/19 04:14:46;;;;;;;206.50;82.30;;;;;;;-5.91;100.00;98930.19;2089133;28;20229;-76
2021/01/19 04:15:47;;;;;;;215.60;83.70;;;;;;;-6.01;100.00;98908.97;2081013;28;20689;-76
2021/01/19 04:16:48;;;;;;;204.70;86.00;;;;;;;-5.99;100.00;98923.38;2081095;28;20302;-76
2021/01/19 04:17:49;;;;;;;208.57;82.03;;;;;;;-6.02;100.00;98922.94;2081063;28;20227;-76
2021/01/19 04:18:51;;;;;;;199.05;79.93;;;;;;;-5.95;100.00;98928.97;2080953;28;20671;-76
2021/01/19 04:19:52;;;;;;;197.07;80.72;;;;;;;-5.95;100.00;98921.19;2088683;28;20227;-76
2021/01/19 04:20:54;;;;;;;196.73;81.78;;;;;;;-5.94;100.00;98930.59;2097431;28;20236;-76
2021/01/19 04:21:55;;;;;;;213.35;80.90;;;;;;;-5.99;100.00;98922.59;2081656;28;20223;-77
2021/01/19 04:22:56;;;;;;;201.85;82.10;;;;;;;-5.96;100.00;98924.78;2081602;28;20759;-76
2021/01/19 04:23:57;;;;;;;205.73;80.33;;;;;;;-5.92;100.00;98928.59;2080834;28;20659;-76
2021/01/19 04:24:58;;;;;;;205.10;80.22;;;;;;;-5.97;100.00;98922.38;2080929;28;20219;-76
2021/01/19 04:25:59;;;;;;;197.23;81.30;;;;;;;-5.94;100.00;98933.19;2081846;28;20212;-76
2021/01/19 04:27:00;;;;;;;189.30;80.90;;;;;;;-6.01;100.00;98927.13;2080789;28;20631;-77
2021/01/19 04:28:02;;;;;;;195.33;80.63;;;;;;;-5.92;100.00;98933.78;2080973;28;20223;-76
2021/01/19 04:29:02;;;;;;;208.25;86.35;;;;;;;-5.92;100.00;98931.19;2081557;28;20728;-76
2021/01/19 04:30:08;;;;;;;211.90;83.03;;;;;;;-5.90;100.00;98931.78;2080869;28;20608;-76
2021/01/19 04:31:08;;;;;;;190.82;81.85;;;;;;;-5.89;100.00;98933.38;2048827;28;20236;-76
2021/01/19 04:32:10;;;;;;;199.33;82.03;;;;;;;-5.90;100.00;98920.63;2070856;28;20254;-76
2021/01/19 04:33:11;;;;;;;201.95;82.28;;;;;;;-5.87;100.00;98928.00;2080773;28;20465;-76
2021/01/19 04:34:13;;;;;;;196.63;80.68;;;;;;;-5.85;100.00;98929.38;2081069;28;20238;-76
2021/01/19 04:35:14;;;;;;;202.00;83.38;;;;;;;-5.87;100.00;98926.19;2081817;28;20311;-76
2021/01/19 04:36:16;;;;;;;207.00;81.60;;;;;;;-5.85;100.00;98923.41;2081479;28;20277;-76
2021/01/19 04:37:17;;;;;;;192.88;77.78;;;;;;;-5.80;100.00;98931.41;2081660;28;20246;-75
2021/01/19 04:38:18;;;;;;;206.77;82.57;;;;;;;-5.85;100.00;98923.41;2080825;28;20219;-76
2021/01/19 04:39:19;;;;;;;192.57;78.28;;;;;;;-5.80;100.00;98937.41;2080846;28;20755;-76
2021/01/19 04:40:20;;;;;;;194.20;80.07;;;;;;;-5.80;100.00;98932.22;2080663;28;20242;-76
2021/01/19 04:41:21;;;;;;;200.68;82.43;;;;;;;-5.81;100.00;98930.63;2072611;28;20281;-77
2021/01/19 04:42:22;;;;;;;202.73;81.27;;;;;;;-5.77;100.00;98931.81;2080396;28;20228;-76